sensor_id;sensor_type;location;lat;lon;timestamp;P1;durP1;ratioP1;P2;durP2;ratioP2
60979;SDS011;46851;49.160;8.980;2023-02-04T00:00:49;14.23;;;8.05;;
60979;SDS011;46851;49.160;8.980;2023-02-04T00:03:15;12.95;;;8.35;;
60979;SDS011;46851;49.160;8.980;2023-02-04T00:05:42;14.20;;;7.97;;
60979;SDS011;46851;49.160;8.980;2023-02-04T00:08:08;10.07;;;7.28;;
60979;SDS011;46851;49.160;8.980;2023-02-04T00:10:35;11.77;;;8.68;;
60979;SDS011;46851;49.160;8.980;2023-02-04T00:13:04;12.27;;;7.55;;
60979;SDS011;46851;49.160;8.980;2023-02-04T00:15:30;10.65;;;7.63;;
60979;SDS011;46851;49.160;8.980;2023-02-04T00:17:56;9.80;;;6.88;;
60979;SDS011;46851;49.160;8.980;2023-02-04T00:20:22;10.07;;;6.70;;
60979;SDS011;46851;49.160;8.980;2023-02-04T00:22:48;12.57;;;7.53;;
60979;SDS011;46851;49.160;8.980;2023-02-04T00:25:15;10.90;;;8.52;;
60979;SDS011;46851;49.160;8.980;2023-02-04T00:27:42;12.35;;;8.20;;
60979;SDS011;46851;49.160;8.980;2023-02-04T00:30:08;11.48;;;8.20;;
60979;SDS011;46851;49.160;8.980;2023-02-04T00:32:34;13.07;;;8.02;;
60979;SDS011;46851;49.160;8.980;2023-02-04T00:35:00;11.35;;;8.30;;
60979;SDS011;46851;49.160;8.980;2023-02-04T00:37:34;15.40;;;8.68;;
60979;SDS011;46851;49.160;8.980;2023-02-04T00:40:03;13.07;;;8.40;;
60979;SDS011;46851;49.160;8.980;2023-02-04T00:42:32;11.40;;;8.48;;
60979;SDS011;46851;49.160;8.980;2023-02-04T00:44:58;11.95;;;8.10;;
60979;SDS011;46851;49.160;8.980;2023-02-04T00:47:24;12.25;;;7.65;;
60979;SDS011;46851;49.160;8.980;2023-02-04T00:49:50;12.27;;;8.20;;
60979;SDS011;46851;49.160;8.980;2023-02-04T00:52:16;10.38;;;7.22;;
60979;SDS011;46851;49.160;8.980;2023-02-04T00:54:42;16.40;;;8.15;;
60979;SDS011;46851;49.160;8.980;2023-02-04T00:57:08;13.23;;;8.30;;
60979;SDS011;46851;49.160;8.980;2023-02-04T00:59:34;11.55;;;7.78;;
60979;SDS011;46851;49.160;8.980;2023-02-04T01:02:00;13.30;;;7.93;;
60979;SDS011;46851;49.160;8.980;2023-02-04T01:04:26;15.13;;;8.30;;
60979;SDS011;46851;49.160;8.980;2023-02-04T01:06:53;12.40;;;7.88;;
60979;SDS011;46851;49.160;8.980;2023-02-04T01:09:19;12.70;;;7.50;;
60979;SDS011;46851;49.160;8.980;2023-02-04T01:11:45;11.77;;;7.10;;
60979;SDS011;46851;49.160;8.980;2023-02-04T01:14:11;10.63;;;7.88;;
60979;SDS011;46851;49.160;8.980;2023-02-04T01:16:37;9.10;;;7.43;;
60979;SDS011;46851;49.160;8.980;2023-02-04T01:19:03;15.65;;;8.38;;
60979;SDS011;46851;49.160;8.980;2023-02-04T01:21:29;12.70;;;7.97;;
60979;SDS011;46851;49.160;8.980;2023-02-04T01:23:55;14.40;;;7.55;;
60979;SDS011;46851;49.160;8.980;2023-02-04T01:26:21;13.90;;;8.10;;
60979;SDS011;46851;49.160;8.980;2023-02-04T01:28:48;11.60;;;7.47;;
60979;SDS011;46851;49.160;8.980;2023-02-04T01:31:14;11.98;;;7.97;;
60979;SDS011;46851;49.160;8.980;2023-02-04T01:33:40;14.82;;;7.93;;
60979;SDS011;46851;49.160;8.980;2023-02-04T01:36:06;12.48;;;7.82;;
60979;SDS011;46851;49.160;8.980;2023-02-04T01:38:32;12.25;;;7.82;;
60979;SDS011;46851;49.160;8.980;2023-02-04T01:40:58;10.88;;;7.38;;
60979;SDS011;46851;49.160;8.980;2023-02-04T01:43:24;12.02;;;7.43;;
60979;SDS011;46851;49.160;8.980;2023-02-04T01:45:51;10.23;;;6.82;;
60979;SDS011;46851;49.160;8.980;2023-02-04T01:48:18;10.73;;;6.80;;
60979;SDS011;46851;49.160;8.980;2023-02-04T01:50:46;15.50;;;7.38;;
60979;SDS011;46851;49.160;8.980;2023-02-04T01:53:12;11.07;;;6.43;;
60979;SDS011;46851;49.160;8.980;2023-02-04T01:55:39;14.75;;;6.65;;
60979;SDS011;46851;49.160;8.980;2023-02-04T01:58:06;9.85;;;6.70;;
60979;SDS011;46851;49.160;8.980;2023-02-04T02:00:33;11.98;;;6.85;;
60979;SDS011;46851;49.160;8.980;2023-02-04T02:02:59;10.77;;;6.47;;
60979;SDS011;46851;49.160;8.980;2023-02-04T02:05:38;10.93;;;6.13;;
60979;SDS011;46851;49.160;8.980;2023-02-04T02:08:05;11.00;;;7.00;;
60979;SDS011;46851;49.160;8.980;2023-02-04T02:10:31;14.13;;;7.45;;
60979;SDS011;46851;49.160;8.980;2023-02-04T02:12:58;11.30;;;6.70;;
60979;SDS011;46851;49.160;8.980;2023-02-04T02:15:24;14.50;;;7.00;;
60979;SDS011;46851;49.160;8.980;2023-02-04T02:17:51;13.80;;;6.50;;
60979;SDS011;46851;49.160;8.980;2023-02-04T02:20:17;11.15;;;6.40;;
60979;SDS011;46851;49.160;8.980;2023-02-04T02:22:50;9.57;;;5.90;;
60979;SDS011;46851;49.160;8.980;2023-02-04T02:25:18;13.65;;;5.78;;
60979;SDS011;46851;49.160;8.980;2023-02-04T02:27:44;10.57;;;5.85;;
60979;SDS011;46851;49.160;8.980;2023-02-04T02:30:11;11.02;;;4.80;;
60979;SDS011;46851;49.160;8.980;2023-02-04T02:32:41;11.13;;;4.50;;
60979;SDS011;46851;49.160;8.980;2023-02-04T02:35:07;10.57;;;4.57;;
60979;SDS011;46851;49.160;8.980;2023-02-04T02:37:33;10.18;;;4.30;;
60979;SDS011;46851;49.160;8.980;2023-02-04T02:39:59;10.45;;;4.00;;
60979;SDS011;46851;49.160;8.980;2023-02-04T02:42:25;7.90;;;4.25;;
60979;SDS011;46851;49.160;8.980;2023-02-04T02:44:52;7.32;;;4.13;;
60979;SDS011;46851;49.160;8.980;2023-02-04T02:47:19;9.10;;;4.35;;
60979;SDS011;46851;49.160;8.980;2023-02-04T02:49:49;10.27;;;4.50;;
60979;SDS011;46851;49.160;8.980;2023-02-04T02:54:41;7.68;;;3.40;;
60979;SDS011;46851;49.160;8.980;2023-02-04T02:57:15;7.57;;;3.40;;
60979;SDS011;46851;49.160;8.980;2023-02-04T02:59:41;8.10;;;2.90;;
60979;SDS011;46851;49.160;8.980;2023-02-04T03:02:08;8.50;;;3.38;;
60979;SDS011;46851;49.160;8.980;2023-02-04T03:04:43;7.70;;;3.28;;
60979;SDS011;46851;49.160;8.980;2023-02-04T03:07:10;10.57;;;3.50;;
60979;SDS011;46851;49.160;8.980;2023-02-04T03:09:37;8.27;;;3.03;;
60979;SDS011;46851;49.160;8.980;2023-02-04T03:12:04;7.28;;;3.00;;
60979;SDS011;46851;49.160;8.980;2023-02-04T03:14:30;9.50;;;3.45;;
60979;SDS011;46851;49.160;8.980;2023-02-04T03:16:56;9.07;;;3.17;;
60979;SDS011;46851;49.160;8.980;2023-02-04T03:19:23;6.53;;;2.58;;
60979;SDS011;46851;49.160;8.980;2023-02-04T03:21:50;7.13;;;2.90;;
60979;SDS011;46851;49.160;8.980;2023-02-04T03:24:16;8.38;;;2.63;;
60979;SDS011;46851;49.160;8.980;2023-02-04T03:26:42;7.53;;;2.60;;
60979;SDS011;46851;49.160;8.980;2023-02-04T03:29:08;10.60;;;2.78;;
60979;SDS011;46851;49.160;8.980;2023-02-04T03:31:35;11.27;;;2.72;;
60979;SDS011;46851;49.160;8.980;2023-02-04T03:34:01;8.57;;;2.70;;
60979;SDS011;46851;49.160;8.980;2023-02-04T03:36:28;9.68;;;3.13;;
60979;SDS011;46851;49.160;8.980;2023-02-04T03:38:54;7.35;;;2.85;;
60979;SDS011;46851;49.160;8.980;2023-02-04T03:41:20;9.85;;;3.15;;
60979;SDS011;46851;49.160;8.980;2023-02-04T03:43:46;8.70;;;3.00;;
60979;SDS011;46851;49.160;8.980;2023-02-04T03:46:12;7.88;;;2.92;;
60979;SDS011;46851;49.160;8.980;2023-02-04T03:48:38;9.13;;;2.78;;
60979;SDS011;46851;49.160;8.980;2023-02-04T03:51:04;14.18;;;3.42;;
60979;SDS011;46851;49.160;8.980;2023-02-04T03:53:30;9.93;;;3.47;;
60979;SDS011;46851;49.160;8.980;2023-02-04T03:55:56;11.63;;;3.80;;
60979;SDS011;46851;49.160;8.980;2023-02-04T03:58:22;8.70;;;2.78;;
60979;SDS011;46851;49.160;8.980;2023-02-04T04:00:48;9.73;;;3.05;;
60979;SDS011;46851;49.160;8.980;2023-02-04T04:03:14;8.85;;;3.10;;
60979;SDS011;46851;49.160;8.980;2023-02-04T04:05:40;12.25;;;2.95;;
60979;SDS011;46851;49.160;8.980;2023-02-04T04:08:06;13.70;;;3.85;;
60979;SDS011;46851;49.160;8.980;2023-02-04T04:10:32;11.20;;;3.08;;
60979;SDS011;46851;49.160;8.980;2023-02-04T04:12:58;11.85;;;2.97;;
60979;SDS011;46851;49.160;8.980;2023-02-04T04:15:24;9.07;;;3.72;;
60979;SDS011;46851;49.160;8.980;2023-02-04T04:17:50;11.15;;;3.33;;
60979;SDS011;46851;49.160;8.980;2023-02-04T04:20:16;9.02;;;3.63;;
60979;SDS011;46851;49.160;8.980;2023-02-04T04:22:43;16.55;;;4.18;;
60979;SDS011;46851;49.160;8.980;2023-02-04T04:25:09;14.93;;;3.63;;
60979;SDS011;46851;49.160;8.980;2023-02-04T04:27:35;19.80;;;4.03;;
60979;SDS011;46851;49.160;8.980;2023-02-04T04:30:02;10.68;;;3.60;;
60979;SDS011;46851;49.160;8.980;2023-02-04T04:32:28;13.95;;;3.22;;
60979;SDS011;46851;49.160;8.980;2023-02-04T04:34:54;12.32;;;3.78;;
60979;SDS011;46851;49.160;8.980;2023-02-04T04:37:20;6.03;;;2.72;;
60979;SDS011;46851;49.160;8.980;2023-02-04T04:39:46;15.40;;;4.07;;
60979;SDS011;46851;49.160;8.980;2023-02-04T04:42:12;16.98;;;4.53;;
60979;SDS011;46851;49.160;8.980;2023-02-04T04:44:38;17.75;;;4.78;;
60979;SDS011;46851;49.160;8.980;2023-02-04T04:47:04;10.30;;;4.35;;
60979;SDS011;46851;49.160;8.980;2023-02-04T04:49:30;14.70;;;3.88;;
60979;SDS011;46851;49.160;8.980;2023-02-04T04:51:56;17.30;;;4.53;;
60979;SDS011;46851;49.160;8.980;2023-02-04T04:54:22;16.55;;;3.80;;
60979;SDS011;46851;49.160;8.980;2023-02-04T04:56:48;10.65;;;3.65;;
60979;SDS011;46851;49.160;8.980;2023-02-04T04:59:14;10.48;;;3.63;;
60979;SDS011;46851;49.160;8.980;2023-02-04T05:01:40;20.52;;;3.75;;
60979;SDS011;46851;49.160;8.980;2023-02-04T05:04:06;18.55;;;4.13;;
60979;SDS011;46851;49.160;8.980;2023-02-04T05:06:32;18.30;;;4.82;;
60979;SDS011;46851;49.160;8.980;2023-02-04T05:08:58;19.73;;;4.65;;
60979;SDS011;46851;49.160;8.980;2023-02-04T05:11:24;17.42;;;4.22;;
60979;SDS011;46851;49.160;8.980;2023-02-04T05:13:50;19.27;;;4.38;;
60979;SDS011;46851;49.160;8.980;2023-02-04T05:16:16;12.73;;;3.95;;
60979;SDS011;46851;49.160;8.980;2023-02-04T05:18:42;16.83;;;3.63;;
60979;SDS011;46851;49.160;8.980;2023-02-04T05:21:09;14.68;;;5.13;;
60979;SDS011;46851;49.160;8.980;2023-02-04T05:23:35;14.00;;;4.47;;
60979;SDS011;46851;49.160;8.980;2023-02-04T05:26:01;17.63;;;5.07;;
60979;SDS011;46851;49.160;8.980;2023-02-04T05:28:27;16.58;;;4.72;;
60979;SDS011;46851;49.160;8.980;2023-02-04T05:30:53;20.27;;;5.32;;
60979;SDS011;46851;49.160;8.980;2023-02-04T05:33:19;17.58;;;5.18;;
60979;SDS011;46851;49.160;8.980;2023-02-04T05:35:45;22.75;;;4.57;;
60979;SDS011;46851;49.160;8.980;2023-02-04T05:38:11;15.45;;;5.45;;
60979;SDS011;46851;49.160;8.980;2023-02-04T05:40:37;17.75;;;4.57;;
60979;SDS011;46851;49.160;8.980;2023-02-04T05:43:03;14.40;;;4.82;;
60979;SDS011;46851;49.160;8.980;2023-02-04T05:45:29;24.25;;;4.80;;
60979;SDS011;46851;49.160;8.980;2023-02-04T05:47:55;35.08;;;5.60;;
60979;SDS011;46851;49.160;8.980;2023-02-04T05:50:21;20.33;;;4.75;;
60979;SDS011;46851;49.160;8.980;2023-02-04T05:52:47;18.42;;;4.85;;
60979;SDS011;46851;49.160;8.980;2023-02-04T05:55:13;26.52;;;5.50;;
60979;SDS011;46851;49.160;8.980;2023-02-04T05:57:39;14.00;;;4.88;;
60979;SDS011;46851;49.160;8.980;2023-02-04T06:00:06;18.27;;;5.85;;
60979;SDS011;46851;49.160;8.980;2023-02-04T06:02:32;12.88;;;4.70;;
60979;SDS011;46851;49.160;8.980;2023-02-04T06:04:58;20.60;;;4.80;;
60979;SDS011;46851;49.160;8.980;2023-02-04T06:07:24;17.88;;;4.90;;
60979;SDS011;46851;49.160;8.980;2023-02-04T06:09:50;28.23;;;5.60;;
60979;SDS011;46851;49.160;8.980;2023-02-04T06:12:16;16.30;;;4.75;;
60979;SDS011;46851;49.160;8.980;2023-02-04T06:14:42;14.25;;;4.35;;
60979;SDS011;46851;49.160;8.980;2023-02-04T06:17:08;17.90;;;4.65;;
60979;SDS011;46851;49.160;8.980;2023-02-04T06:19:34;18.35;;;5.05;;
60979;SDS011;46851;49.160;8.980;2023-02-04T06:22:00;18.33;;;4.70;;
60979;SDS011;46851;49.160;8.980;2023-02-04T06:24:26;21.20;;;5.15;;
60979;SDS011;46851;49.160;8.980;2023-02-04T06:26:52;21.02;;;4.95;;
60979;SDS011;46851;49.160;8.980;2023-02-04T06:29:18;16.90;;;4.82;;
60979;SDS011;46851;49.160;8.980;2023-02-04T06:31:44;16.13;;;4.88;;
60979;SDS011;46851;49.160;8.980;2023-02-04T06:34:11;18.80;;;5.15;;
60979;SDS011;46851;49.160;8.980;2023-02-04T06:36:37;21.98;;;4.57;;
60979;SDS011;46851;49.160;8.980;2023-02-04T06:39:02;21.67;;;4.60;;
60979;SDS011;46851;49.160;8.980;2023-02-04T06:41:28;17.60;;;5.25;;
60979;SDS011;46851;49.160;8.980;2023-02-04T06:43:57;19.27;;;4.75;;
60979;SDS011;46851;49.160;8.980;2023-02-04T06:46:23;19.55;;;5.43;;
60979;SDS011;46851;49.160;8.980;2023-02-04T06:48:49;21.52;;;5.30;;
60979;SDS011;46851;49.160;8.980;2023-02-04T06:51:15;15.32;;;6.05;;
60979;SDS011;46851;49.160;8.980;2023-02-04T06:53:46;50.00;;;18.45;;
60979;SDS011;46851;49.160;8.980;2023-02-04T06:56:12;62.60;;;25.58;;
60979;SDS011;46851;49.160;8.980;2023-02-04T06:58:38;66.60;;;30.13;;
60979;SDS011;46851;49.160;8.980;2023-02-04T07:01:04;65.55;;;32.03;;
60979;SDS011;46851;49.160;8.980;2023-02-04T07:03:30;100.15;;;45.53;;
60979;SDS011;46851;49.160;8.980;2023-02-04T07:05:56;68.97;;;33.92;;
60979;SDS011;46851;49.160;8.980;2023-02-04T07:08:22;45.05;;;19.08;;
60979;SDS011;46851;49.160;8.980;2023-02-04T07:10:48;34.58;;;10.48;;
60979;SDS011;46851;49.160;8.980;2023-02-04T07:13:14;16.60;;;5.03;;
60979;SDS011;46851;49.160;8.980;2023-02-04T07:15:40;16.90;;;4.95;;
60979;SDS011;46851;49.160;8.980;2023-02-04T07:18:06;19.13;;;5.32;;
60979;SDS011;46851;49.160;8.980;2023-02-04T07:20:32;18.15;;;7.45;;
60979;SDS011;46851;49.160;8.980;2023-02-04T07:22:58;21.42;;;9.38;;
60979;SDS011;46851;49.160;8.980;2023-02-04T07:25:24;24.95;;;10.18;;
60979;SDS011;46851;49.160;8.980;2023-02-04T07:27:50;22.63;;;8.02;;
60979;SDS011;46851;49.160;8.980;2023-02-04T07:30:16;17.48;;;7.20;;
60979;SDS011;46851;49.160;8.980;2023-02-04T07:32:42;18.67;;;6.18;;
60979;SDS011;46851;49.160;8.980;2023-02-04T07:35:08;14.43;;;5.22;;
60979;SDS011;46851;49.160;8.980;2023-02-04T07:37:35;16.98;;;5.47;;
60979;SDS011;46851;49.160;8.980;2023-02-04T07:40:01;16.52;;;5.85;;
60979;SDS011;46851;49.160;8.980;2023-02-04T07:42:27;14.93;;;5.18;;
60979;SDS011;46851;49.160;8.980;2023-02-04T07:44:53;16.63;;;5.10;;
60979;SDS011;46851;49.160;8.980;2023-02-04T07:47:19;18.17;;;5.13;;
60979;SDS011;46851;49.160;8.980;2023-02-04T07:49:45;22.63;;;5.63;;
60979;SDS011;46851;49.160;8.980;2023-02-04T07:52:11;21.60;;;5.47;;
60979;SDS011;46851;49.160;8.980;2023-02-04T07:54:37;22.83;;;6.00;;
60979;SDS011;46851;49.160;8.980;2023-02-04T07:57:03;17.70;;;5.40;;
60979;SDS011;46851;49.160;8.980;2023-02-04T07:59:29;22.00;;;5.82;;
60979;SDS011;46851;49.160;8.980;2023-02-04T08:01:55;17.17;;;5.82;;
60979;SDS011;46851;49.160;8.980;2023-02-04T08:07:28;16.52;;;6.18;;
60979;SDS011;46851;49.160;8.980;2023-02-04T08:09:54;17.98;;;5.50;;
60979;SDS011;46851;49.160;8.980;2023-02-04T08:12:20;13.32;;;5.60;;
60979;SDS011;46851;49.160;8.980;2023-02-04T08:14:46;17.17;;;5.35;;
60979;SDS011;46851;49.160;8.980;2023-02-04T08:17:12;17.30;;;5.53;;
60979;SDS011;46851;49.160;8.980;2023-02-04T08:19:38;15.32;;;5.80;;
60979;SDS011;46851;49.160;8.980;2023-02-04T08:22:04;16.73;;;5.80;;
60979;SDS011;46851;49.160;8.980;2023-02-04T08:24:30;13.57;;;5.30;;
60979;SDS011;46851;49.160;8.980;2023-02-04T08:26:56;20.20;;;5.38;;
60979;SDS011;46851;49.160;8.980;2023-02-04T08:29:23;17.27;;;5.13;;
60979;SDS011;46851;49.160;8.980;2023-02-04T08:31:52;17.67;;;5.25;;
60979;SDS011;46851;49.160;8.980;2023-02-04T08:34:18;15.43;;;4.68;;
60979;SDS011;46851;49.160;8.980;2023-02-04T08:36:44;18.45;;;5.07;;
60979;SDS011;46851;49.160;8.980;2023-02-04T08:39:10;13.50;;;4.75;;
60979;SDS011;46851;49.160;8.980;2023-02-04T08:41:36;15.68;;;5.00;;
60979;SDS011;46851;49.160;8.980;2023-02-04T08:44:02;21.92;;;6.43;;
60979;SDS011;46851;49.160;8.980;2023-02-04T08:46:28;20.70;;;6.30;;
60979;SDS011;46851;49.160;8.980;2023-02-04T08:48:54;19.60;;;5.35;;
60979;SDS011;46851;49.160;8.980;2023-02-04T08:51:20;13.90;;;5.57;;
60979;SDS011;46851;49.160;8.980;2023-02-04T08:53:46;15.98;;;4.43;;
60979;SDS011;46851;49.160;8.980;2023-02-04T08:56:12;18.08;;;4.93;;
60979;SDS011;46851;49.160;8.980;2023-02-04T08:58:47;16.08;;;4.95;;
60979;SDS011;46851;49.160;8.980;2023-02-04T09:01:13;20.38;;;4.28;;
60979;SDS011;46851;49.160;8.980;2023-02-04T09:03:39;19.80;;;4.53;;
60979;SDS011;46851;49.160;8.980;2023-02-04T09:06:06;21.48;;;4.95;;
60979;SDS011;46851;49.160;8.980;2023-02-04T09:08:32;12.13;;;3.70;;
60979;SDS011;46851;49.160;8.980;2023-02-04T09:10:58;14.93;;;4.70;;
60979;SDS011;46851;49.160;8.980;2023-02-04T09:13:24;18.27;;;4.78;;
60979;SDS011;46851;49.160;8.980;2023-02-04T09:15:50;14.32;;;4.50;;
60979;SDS011;46851;49.160;8.980;2023-02-04T09:18:17;11.80;;;3.95;;
60979;SDS011;46851;49.160;8.980;2023-02-04T09:20:46;17.53;;;4.47;;
60979;SDS011;46851;49.160;8.980;2023-02-04T09:23:12;10.40;;;3.97;;
60979;SDS011;46851;49.160;8.980;2023-02-04T09:25:38;16.90;;;4.50;;
60979;SDS011;46851;49.160;8.980;2023-02-04T09:28:05;21.65;;;4.25;;
60979;SDS011;46851;49.160;8.980;2023-02-04T09:30:34;15.88;;;3.58;;
60979;SDS011;46851;49.160;8.980;2023-02-04T09:33:00;20.17;;;4.07;;
60979;SDS011;46851;49.160;8.980;2023-02-04T09:35:26;23.17;;;3.92;;
60979;SDS011;46851;49.160;8.980;2023-02-04T09:37:52;16.45;;;3.55;;
60979;SDS011;46851;49.160;8.980;2023-02-04T09:40:18;19.67;;;3.58;;
60979;SDS011;46851;49.160;8.980;2023-02-04T09:42:46;18.48;;;4.22;;
60979;SDS011;46851;49.160;8.980;2023-02-04T09:45:17;19.95;;;3.53;;
60979;SDS011;46851;49.160;8.980;2023-02-04T09:47:44;14.48;;;3.53;;
60979;SDS011;46851;49.160;8.980;2023-02-04T09:50:18;23.27;;;4.07;;
60979;SDS011;46851;49.160;8.980;2023-02-04T09:52:45;14.32;;;2.88;;
60979;SDS011;46851;49.160;8.980;2023-02-04T09:55:12;19.63;;;3.42;;
60979;SDS011;46851;49.160;8.980;2023-02-04T09:57:39;19.73;;;3.80;;
60979;SDS011;46851;49.160;8.980;2023-02-04T10:00:18;21.50;;;3.33;;
60979;SDS011;46851;49.160;8.980;2023-02-04T10:02:45;18.15;;;3.20;;
60979;SDS011;46851;49.160;8.980;2023-02-04T10:05:15;19.38;;;3.60;;
60979;SDS011;46851;49.160;8.980;2023-02-04T10:07:41;18.33;;;4.30;;
60979;SDS011;46851;49.160;8.980;2023-02-04T10:10:12;18.73;;;3.05;;
60979;SDS011;46851;49.160;8.980;2023-02-04T10:12:39;17.85;;;3.78;;
60979;SDS011;46851;49.160;8.980;2023-02-04T10:15:05;16.70;;;2.80;;
60979;SDS011;46851;49.160;8.980;2023-02-04T10:17:35;15.00;;;2.78;;
60979;SDS011;46851;49.160;8.980;2023-02-04T10:20:01;20.80;;;3.70;;
60979;SDS011;46851;49.160;8.980;2023-02-04T10:22:27;20.27;;;3.08;;
60979;SDS011;46851;49.160;8.980;2023-02-04T10:24:53;18.67;;;2.85;;
60979;SDS011;46851;49.160;8.980;2023-02-04T10:27:19;19.60;;;3.92;;
60979;SDS011;46851;49.160;8.980;2023-02-04T10:29:55;16.35;;;2.92;;
60979;SDS011;46851;49.160;8.980;2023-02-04T10:32:28;13.00;;;2.58;;
60979;SDS011;46851;49.160;8.980;2023-02-04T10:34:56;20.23;;;3.22;;
60979;SDS011;46851;49.160;8.980;2023-02-04T10:37:23;15.02;;;2.75;;
60979;SDS011;46851;49.160;8.980;2023-02-04T10:39:49;18.00;;;2.97;;
60979;SDS011;46851;49.160;8.980;2023-02-04T10:42:23;14.70;;;2.83;;
60979;SDS011;46851;49.160;8.980;2023-02-04T10:44:49;18.45;;;3.60;;
60979;SDS011;46851;49.160;8.980;2023-02-04T10:47:18;19.17;;;3.17;;
60979;SDS011;46851;49.160;8.980;2023-02-04T10:49:51;12.05;;;3.00;;
60979;SDS011;46851;49.160;8.980;2023-02-04T10:52:17;13.88;;;3.00;;
60979;SDS011;46851;49.160;8.980;2023-02-04T10:54:44;20.35;;;3.22;;
60979;SDS011;46851;49.160;8.980;2023-02-04T10:59:36;23.50;;;3.50;;
60979;SDS011;46851;49.160;8.980;2023-02-04T11:02:11;25.65;;;4.90;;
60979;SDS011;46851;49.160;8.980;2023-02-04T11:04:44;14.48;;;3.42;;
60979;SDS011;46851;49.160;8.980;2023-02-04T11:07:11;21.38;;;3.17;;
60979;SDS011;46851;49.160;8.980;2023-02-04T11:09:40;13.95;;;2.70;;
60979;SDS011;46851;49.160;8.980;2023-02-04T11:12:17;18.30;;;3.45;;
60979;SDS011;46851;49.160;8.980;2023-02-04T11:14:53;11.60;;;2.65;;
60979;SDS011;46851;49.160;8.980;2023-02-04T11:17:19;14.55;;;3.20;;
60979;SDS011;46851;49.160;8.980;2023-02-04T11:19:45;18.95;;;3.30;;
60979;SDS011;46851;49.160;8.980;2023-02-04T11:24:57;21.95;;;3.90;;
60979;SDS011;46851;49.160;8.980;2023-02-04T11:27:25;16.55;;;2.90;;
60979;SDS011;46851;49.160;8.980;2023-02-04T11:30:05;23.52;;;4.13;;
60979;SDS011;46851;49.160;8.980;2023-02-04T11:32:34;16.70;;;3.13;;
60979;SDS011;46851;49.160;8.980;2023-02-04T11:37:40;15.40;;;3.38;;
60979;SDS011;46851;49.160;8.980;2023-02-04T11:40:11;18.50;;;3.28;;
60979;SDS011;46851;49.160;8.980;2023-02-04T11:42:44;19.45;;;3.15;;
60979;SDS011;46851;49.160;8.980;2023-02-04T11:47:40;17.23;;;3.50;;
60979;SDS011;46851;49.160;8.980;2023-02-04T11:50:39;18.10;;;3.67;;
60979;SDS011;46851;49.160;8.980;2023-02-04T11:52:59;16.80;;;3.30;;
60979;SDS011;46851;49.160;8.980;2023-02-04T11:55:29;18.40;;;2.83;;
60979;SDS011;46851;49.160;8.980;2023-02-04T11:57:55;12.77;;;2.65;;
60979;SDS011;46851;49.160;8.980;2023-02-04T12:00:23;15.73;;;2.88;;
60979;SDS011;46851;49.160;8.980;2023-02-04T12:02:50;16.08;;;3.08;;
60979;SDS011;46851;49.160;8.980;2023-02-04T12:05:18;14.68;;;3.35;;
60979;SDS011;46851;49.160;8.980;2023-02-04T12:07:46;16.83;;;3.58;;
60979;SDS011;46851;49.160;8.980;2023-02-04T12:12:52;16.35;;;2.85;;
60979;SDS011;46851;49.160;8.980;2023-02-04T12:15:23;15.00;;;3.13;;
60979;SDS011;46851;49.160;8.980;2023-02-04T12:18:00;19.48;;;3.45;;
60979;SDS011;46851;49.160;8.980;2023-02-04T12:20:26;12.52;;;3.08;;
60979;SDS011;46851;49.160;8.980;2023-02-04T12:22:53;12.73;;;2.38;;
60979;SDS011;46851;49.160;8.980;2023-02-04T12:25:19;8.80;;;1.83;;
60979;SDS011;46851;49.160;8.980;2023-02-04T12:27:45;12.25;;;2.63;;
60979;SDS011;46851;49.160;8.980;2023-02-04T12:30:11;11.88;;;2.58;;
60979;SDS011;46851;49.160;8.980;2023-02-04T12:32:37;9.57;;;1.77;;
60979;SDS011;46851;49.160;8.980;2023-02-04T12:35:03;7.80;;;2.30;;
60979;SDS011;46851;49.160;8.980;2023-02-04T12:37:30;10.25;;;1.85;;
60979;SDS011;46851;49.160;8.980;2023-02-04T12:39:56;15.07;;;2.80;;
60979;SDS011;46851;49.160;8.980;2023-02-04T12:42:22;14.98;;;2.72;;
60979;SDS011;46851;49.160;8.980;2023-02-04T12:44:49;11.30;;;1.95;;
60979;SDS011;46851;49.160;8.980;2023-02-04T12:47:16;10.00;;;2.03;;
60979;SDS011;46851;49.160;8.980;2023-02-04T12:49:55;10.80;;;2.05;;
60979;SDS011;46851;49.160;8.980;2023-02-04T12:52:30;15.90;;;2.40;;
60979;SDS011;46851;49.160;8.980;2023-02-04T12:54:56;6.97;;;2.10;;
60979;SDS011;46851;49.160;8.980;2023-02-04T12:57:24;9.65;;;1.70;;
60979;SDS011;46851;49.160;8.980;2023-02-04T12:59:50;7.43;;;2.13;;
60979;SDS011;46851;49.160;8.980;2023-02-04T13:02:16;5.90;;;1.60;;
60979;SDS011;46851;49.160;8.980;2023-02-04T13:04:42;10.70;;;2.20;;
60979;SDS011;46851;49.160;8.980;2023-02-04T13:07:08;8.52;;;1.83;;
60979;SDS011;46851;49.160;8.980;2023-02-04T13:09:34;6.43;;;1.52;;
60979;SDS011;46851;49.160;8.980;2023-02-04T13:12:01;8.68;;;1.65;;
60979;SDS011;46851;49.160;8.980;2023-02-04T13:14:27;8.27;;;1.45;;
60979;SDS011;46851;49.160;8.980;2023-02-04T13:16:53;5.80;;;1.85;;
60979;SDS011;46851;49.160;8.980;2023-02-04T13:19:19;7.32;;;1.40;;
60979;SDS011;46851;49.160;8.980;2023-02-04T13:21:45;6.35;;;1.50;;
60979;SDS011;46851;49.160;8.980;2023-02-04T13:24:11;5.53;;;1.45;;
60979;SDS011;46851;49.160;8.980;2023-02-04T13:26:37;7.97;;;1.50;;
60979;SDS011;46851;49.160;8.980;2023-02-04T13:29:03;10.32;;;1.70;;
60979;SDS011;46851;49.160;8.980;2023-02-04T13:31:29;7.53;;;1.55;;
60979;SDS011;46851;49.160;8.980;2023-02-04T13:33:55;8.95;;;2.13;;
60979;SDS011;46851;49.160;8.980;2023-02-04T13:36:21;9.07;;;1.98;;
60979;SDS011;46851;49.160;8.980;2023-02-04T13:38:47;6.28;;;1.38;;
60979;SDS011;46851;49.160;8.980;2023-02-04T13:41:13;5.05;;;1.75;;
60979;SDS011;46851;49.160;8.980;2023-02-04T13:43:39;6.90;;;1.30;;
60979;SDS011;46851;49.160;8.980;2023-02-04T13:46:05;4.82;;;1.45;;
60979;SDS011;46851;49.160;8.980;2023-02-04T13:48:31;11.73;;;1.80;;
60979;SDS011;46851;49.160;8.980;2023-02-04T13:50:57;8.82;;;1.80;;
60979;SDS011;46851;49.160;8.980;2023-02-04T13:53:23;11.73;;;1.80;;
60979;SDS011;46851;49.160;8.980;2023-02-04T13:55:54;10.20;;;2.00;;
60979;SDS011;46851;49.160;8.980;2023-02-04T13:58:20;12.85;;;1.92;;
60979;SDS011;46851;49.160;8.980;2023-02-04T14:00:46;10.23;;;2.25;;
60979;SDS011;46851;49.160;8.980;2023-02-04T14:03:12;9.32;;;1.73;;
60979;SDS011;46851;49.160;8.980;2023-02-04T14:05:39;11.45;;;2.13;;
60979;SDS011;46851;49.160;8.980;2023-02-04T14:08:05;6.80;;;1.67;;
60979;SDS011;46851;49.160;8.980;2023-02-04T14:10:30;10.02;;;2.30;;
60979;SDS011;46851;49.160;8.980;2023-02-04T14:12:57;8.38;;;1.90;;
60979;SDS011;46851;49.160;8.980;2023-02-04T14:15:23;14.60;;;1.98;;
60979;SDS011;46851;49.160;8.980;2023-02-04T14:17:49;11.02;;;2.75;;
60979;SDS011;46851;49.160;8.980;2023-02-04T14:20:15;12.63;;;2.38;;
60979;SDS011;46851;49.160;8.980;2023-02-04T14:22:41;10.75;;;1.95;;
60979;SDS011;46851;49.160;8.980;2023-02-04T14:25:07;12.73;;;2.92;;
60979;SDS011;46851;49.160;8.980;2023-02-04T14:27:34;7.78;;;1.75;;
60979;SDS011;46851;49.160;8.980;2023-02-04T14:30:02;10.98;;;1.95;;
60979;SDS011;46851;49.160;8.980;2023-02-04T14:32:29;14.57;;;2.72;;
60979;SDS011;46851;49.160;8.980;2023-02-04T14:34:55;12.73;;;2.15;;
60979;SDS011;46851;49.160;8.980;2023-02-04T14:37:21;8.55;;;1.65;;
60979;SDS011;46851;49.160;8.980;2023-02-04T14:39:52;6.53;;;1.73;;
60979;SDS011;46851;49.160;8.980;2023-02-04T14:42:18;10.27;;;1.98;;
60979;SDS011;46851;49.160;8.980;2023-02-04T14:44:44;9.02;;;1.90;;
60979;SDS011;46851;49.160;8.980;2023-02-04T14:47:10;17.27;;;2.10;;
60979;SDS011;46851;49.160;8.980;2023-02-04T14:49:36;9.45;;;1.50;;
60979;SDS011;46851;49.160;8.980;2023-02-04T14:52:02;12.68;;;2.03;;